Time;durP1;ratioP1;P1;durP2;ratioP2;P2;SDS_P1;SDS_P2;PMS_P1;PMS_P2;Temp;Humidity;BMP_temperature;BMP_pressure;BME280_temperature;BME280_humidity;BME280_pressure;Samples;Min_cycle;Max_cycle;Signal;HPM_P1;HPM_P2
2023/09/03 00:00:44;;;;;;;5.67;3.00;;;17.60;98.00;;;;;;5051565;28;21006;-69
2023/09/03 00:03:11;;;;;;;3.73;2.70;;;17.60;98.00;;;;;;5051672;28;20450;-68
2023/09/03 00:05:38;;;;;;;3.90;2.40;;;17.50;98.00;;;;;;5051523;28;20567;-68
2023/09/03 00:08:05;;;;;;;4.80;2.83;;;17.50;98.00;;;;;;5051555;28;20504;-68
2023/09/03 00:10:35;;;;;;;7.23;3.57;;;17.40;98.00;;;;;;5050369;28;20442;-68
2023/09/03 00:13:03;;;;;;;5.13;3.00;;;17.40;98.00;;;;;;5051584;28;20449;-68
2023/09/03 00:15:30;;;;;;;3.80;2.50;;;17.50;98.00;;;;;;5051481;28;20457;-68
2023/09/03 00:17:59;;;;;;;5.03;2.97;;;17.50;98.00;;;;;;5051382;28;20454;-69
2023/09/03 00:20:26;;;;;;;4.27;2.93;;;17.50;98.00;;;;;;5050116;28;20450;-67
2023/09/03 00:22:53;;;;;;;8.73;2.60;;;17.50;98.00;;;;;;5051677;28;20453;-69
2023/09/03 00:25:21;;;;;;;6.00;3.10;;;17.60;98.00;;;;;;5051334;28;20445;-69
2023/09/03 00:27:48;;;;;;;7.03;3.20;;;17.70;98.00;;;;;;5051031;28;20518;-69
2023/09/03 00:30:15;;;;;;;7.50;2.97;;;17.50;98.00;;;;;;5051403;28;20452;-69
2023/09/03 00:32:42;;;;;;;3.43;2.70;;;17.40;98.00;;;;;;5050891;28;20453;-69
2023/09/03 00:35:11;;;;;;;5.57;2.90;;;17.40;98.00;;;;;;5051212;28;20881;-69
2023/09/03 00:37:38;;;;;;;5.90;3.23;;;17.50;98.00;;;;;;5049730;28;20460;-67
2023/09/03 00:40:06;;;;;;;4.60;3.13;;;17.50;98.00;;;;;;5051084;28;20441;-68
2023/09/03 00:42:34;;;;;;;4.00;2.80;;;17.40;98.00;;;;;;5050987;28;20675;-69
2023/09/03 00:45:01;;;;;;;5.93;3.17;;;17.40;98.00;;;;;;5049803;28;20532;-68
2023/09/03 00:47:29;;;;;;;3.67;2.70;;;17.40;98.00;;;;;;5050960;28;20521;-68
2023/09/03 00:49:56;;;;;;;4.80;3.13;;;17.40;98.00;;;;;;5050964;28;20457;-69
2023/09/03 00:52:26;;;;;;;6.60;3.53;;;17.30;98.00;;;;;;5049617;28;20472;-69
2023/09/03 00:54:55;;;;;;;4.87;3.10;;;17.30;98.00;;;;;;5050790;28;20939;-69
2023/09/03 00:57:23;;;;;;;5.83;3.23;;;17.40;98.00;;;;;;5049489;28;20528;-68
2023/09/03 00:59:52;;;;;;;4.67;2.63;;;17.30;98.00;;;;;;5050856;28;20453;-68
2023/09/03 01:02:20;;;;;;;4.20;2.90;;;17.30;98.00;;;;;;5049558;28;20454;-69
2023/09/03 01:04:47;;;;;;;5.37;3.00;;;17.30;98.00;;;;;;5050844;28;20955;-68
2023/09/03 01:07:16;;;;;;;8.30;3.10;;;17.20;98.00;;;;;;5050687;28;20490;-68
2023/09/03 01:09:45;;;;;;;4.73;3.03;;;17.10;98.00;;;;;;5050773;28;20849;-70
2023/09/03 01:12:20;;;;;;;6.40;3.00;;;17.20;98.00;;;;;;5050717;28;20958;-68
2023/09/03 01:14:59;;;;;;;5.30;3.20;;;17.40;98.00;;;;;;5050874;28;20866;-69
2023/09/03 01:17:37;;;;;;;4.07;2.80;;;17.20;98.00;;;;;;5050627;28;20468;-69
2023/09/03 01:20:10;;;;;;;5.50;3.10;;;17.10;98.00;;;;;;5050816;28;20454;-68
2023/09/03 01:23:16;;;;;;;4.47;3.10;;;17.10;98.00;;;;;;5050647;28;20489;-68
2023/09/03 01:26:11;;;;;;;4.13;2.77;;;17.10;98.00;;;;;;5030189;28;20512;-68
2023/09/03 01:28:41;;;;;;;4.77;3.10;;;17.10;98.00;;;;;;5046883;28;20475;-69
2023/09/03 01:31:11;;;;;;;8.87;2.93;;;17.10;98.00;;;;;;5050457;28;20805;-69
2023/09/03 01:33:39;;;;;;;5.00;2.97;;;17.00;98.00;;;;;;5050415;28;20503;-68
2023/09/03 01:36:09;;;;;;;6.80;2.90;;;17.00;98.00;;;;;;5050432;28;20511;-68
2023/09/03 01:38:36;;;;;;;5.37;3.00;;;17.10;98.00;;;;;;5051181;28;20511;-69
2023/09/03 01:41:03;;;;;;;4.63;2.90;;;17.10;98.00;;;;;;5054686;28;20890;-68
2023/09/03 01:43:31;;;;;;;4.93;2.90;;;17.10;98.00;;;;;;5054151;28;20935;-68
2023/09/03 01:46:06;;;;;;;3.80;2.40;;;17.10;98.00;;;;;;5053946;28;21003;-69
2023/09/03 01:48:50;;;;;;;7.17;2.93;;;17.10;98.00;;;;;;5054040;28;20495;-68
2023/09/03 01:51:26;;;;;;;4.40;2.80;;;17.20;98.00;;;;;;5054296;28;20511;-68
2023/09/03 01:54:01;;;;;;;6.77;2.70;;;17.30;98.00;;;;;;5052827;28;20460;-69
2023/09/03 01:56:32;;;;;;;7.30;3.17;;;17.30;98.00;;;;;;5053964;28;20556;-68
2023/09/03 01:59:12;;;;;;;4.97;3.17;;;17.30;98.00;;;;;;5053872;28;20461;-70
2023/09/03 02:01:40;;;;;;;3.50;2.70;;;17.30;98.00;;;;;;5054085;28;20465;-68
2023/09/03 02:04:08;;;;;;;4.23;2.80;;;17.20;98.00;;;;;;5053870;28;20874;-67
2023/09/03 02:06:35;;;;;;;3.50;2.70;;;17.10;98.00;;;;;;5052937;28;20488;-68
2023/09/03 02:09:02;;;;;;;5.87;3.13;;;17.20;98.00;;;;;;5052788;28;20511;-68
2023/09/03 02:11:29;;;;;;;4.50;3.07;;;17.20;98.00;;;;;;5052786;28;20952;-68
2023/09/03 02:13:56;;;;;;;5.73;3.37;;;17.20;98.00;;;;;;5053761;28;20454;-68
2023/09/03 02:16:23;;;;;;;8.50;2.93;;;17.40;98.00;;;;;;5053678;28;20952;-68
2023/09/03 02:18:52;;;;;;;5.60;3.00;;;17.40;98.00;;;;;;5053472;28;20449;-69
2023/09/03 02:21:19;;;;;;;4.60;3.00;;;17.40;98.00;;;;;;5053618;28;20457;-67
2023/09/03 02:23:46;;;;;;;4.50;3.03;;;17.20;98.00;;;;;;5053435;28;20454;-68
2023/09/03 02:26:13;;;;;;;5.90;3.20;;;17.10;98.00;;;;;;5053425;28;20894;-69
2023/09/03 02:28:41;;;;;;;3.93;2.87;;;16.90;98.00;;;;;;5053181;28;20826;-68
2023/09/03 02:31:08;;;;;;;3.80;3.00;;;16.80;98.00;;;;;;5053482;28;20500;-67
2023/09/03 02:33:35;;;;;;;6.00;3.27;;;16.80;98.00;;;;;;5051967;28;20488;-68
2023/09/03 02:36:05;;;;;;;5.17;3.03;;;16.90;98.00;;;;;;5052317;28;20454;-68
2023/09/03 02:38:32;;;;;;;3.93;2.60;;;16.90;98.00;;;;;;5053499;28;20776;-69
2023/09/03 02:40:59;;;;;;;7.33;3.10;;;16.90;98.00;;;;;;5053214;28;20454;-68
2023/09/03 02:43:26;;;;;;;4.17;2.73;;;16.90;98.00;;;;;;5051891;28;20493;-68
2023/09/03 02:45:53;;;;;;;4.03;2.90;;;16.80;98.00;;;;;;5053008;28;20878;-69
2023/09/03 02:48:20;;;;;;;5.30;2.97;;;16.80;98.00;;;;;;5052797;28;20668;-69
2023/09/03 02:50:47;;;;;;;8.73;2.90;;;16.80;98.00;;;;;;5052883;28;20457;-67
2023/09/03 02:53:16;;;;;;;4.70;3.17;;;16.70;98.00;;;;;;5051817;28;20493;-68
2023/09/03 02:55:43;;;;;;;4.13;2.60;;;16.80;98.00;;;;;;5053035;28;21002;-68
2023/09/03 02:58:10;;;;;;;5.23;3.00;;;16.90;98.00;;;;;;5052774;28;20453;-68
2023/09/03 03:00:37;;;;;;;4.30;3.10;;;17.00;98.00;;;;;;5052981;28;20812;-68
2023/09/03 03:03:05;;;;;;;5.60;2.83;;;16.90;98.00;;;;;;5052969;28;20460;-68
2023/09/03 03:05:31;;;;;;;6.73;3.13;;;16.80;98.00;;;;;;5051756;28;20457;-69
2023/09/03 03:08:02;;;;;;;4.47;3.00;;;16.70;98.00;;;;;;5052626;28;20490;-69
2023/09/03 03:10:31;;;;;;;4.23;3.13;;;16.60;98.00;;;;;;5051564;28;20507;-68
2023/09/03 03:12:58;;;;;;;4.50;3.10;;;16.60;98.00;;;;;;5052589;28;20454;-69
2023/09/03 03:15:26;;;;;;;11.90;2.80;;;16.50;98.00;;;;;;5051400;28;20876;-68
2023/09/03 03:17:52;;;;;;;7.50;2.80;;;16.40;98.00;;;;;;5052520;28;20568;-69
2023/09/03 03:20:22;;;;;;;5.23;3.00;;;16.60;98.00;;;;;;5052201;28;20453;-68
2023/09/03 03:22:49;;;;;;;11.33;3.20;;;16.60;98.00;;;;;;5052421;28;20536;-68
2023/09/03 03:25:19;;;;;;;7.33;3.23;;;16.50;98.00;;;;;;5052320;28;20998;-69
2023/09/03 03:27:47;;;;;;;9.20;3.57;;;16.40;98.00;;;;;;5052105;28;21000;-68
2023/09/03 03:30:15;;;;;;;4.07;2.93;;;16.50;98.00;;;;;;5052560;28;20945;-68
2023/09/03 03:32:42;;;;;;;4.80;3.00;;;16.40;98.00;;;;;;5052107;28;20480;-68
2023/09/03 03:35:10;;;;;;;7.10;3.00;;;16.40;98.00;;;;;;5052293;28;20496;-68
2023/09/03 03:37:37;;;;;;;6.67;3.33;;;16.30;98.00;;;;;;5050672;28;20485;-68
2023/09/03 03:40:06;;;;;;;4.90;3.07;;;16.30;98.00;;;;;;5052130;28;20453;-69
2023/09/03 03:42:33;;;;;;;6.67;3.50;;;16.40;98.00;;;;;;5051495;28;20466;-68
2023/09/03 03:45:02;;;;;;;6.00;3.23;;;16.50;98.00;;;;;;5050955;28;20856;-68
2023/09/03 03:47:29;;;;;;;4.70;3.00;;;16.60;98.00;;;;;;5051332;28;20497;-68
2023/09/03 03:49:56;;;;;;;4.97;2.73;;;16.50;98.00;;;;;;5051983;28;20454;-68
2023/09/03 03:52:24;;;;;;;6.10;3.20;;;16.60;98.00;;;;;;5051835;28;20450;-69
2023/09/03 03:54:51;;;;;;;5.10;3.23;;;16.60;98.00;;;;;;5051820;28;21034;-68
2023/09/03 03:57:18;;;;;;;6.17;3.50;;;16.50;98.00;;;;;;5050464;28;20470;-69
2023/09/03 03:59:46;;;;;;;6.97;3.57;;;16.30;98.00;;;;;;5050970;28;20595;-68
2023/09/03 04:02:14;;;;;;;6.87;3.03;;;16.30;98.00;;;;;;5051468;28;20944;-68
2023/09/03 04:04:41;;;;;;;4.40;3.03;;;16.20;98.00;;;;;;5033747;28;20453;-70
2023/09/03 04:07:09;;;;;;;5.17;3.00;;;16.20;98.00;;;;;;5051590;28;20543;-68
2023/09/03 04:09:37;;;;;;;4.40;3.07;;;16.30;98.00;;;;;;5050162;28;20826;-68
2023/09/03 04:12:05;;;;;;;4.80;2.90;;;16.40;98.00;;;;;;5051607;28;20462;-68
2023/09/03 04:14:32;;;;;;;7.03;3.73;;;16.50;98.00;;;;;;5051127;28;20456;-67
2023/09/03 04:17:19;;;;;;;6.63;3.33;;;16.50;98.00;;;;;;5051618;28;20979;-68
2023/09/03 04:19:47;;;;;;;4.90;3.00;;;16.50;98.00;;;;;;5050036;28;20446;-68
2023/09/03 04:22:14;;;;;;;6.53;3.40;;;16.30;98.00;;;;;;5051482;28;20446;-68
2023/09/03 04:24:41;;;;;;;5.93;2.90;;;16.20;98.00;;;;;;5051357;28;20463;-67
2023/09/03 04:27:08;;;;;;;6.13;2.80;;;16.20;98.00;;;;;;5051568;28;21025;-68
2023/09/03 04:29:36;;;;;;;4.37;3.00;;;16.20;98.00;;;;;;5051805;28;20551;-68
2023/09/03 04:32:03;;;;;;;4.30;3.23;;;16.20;98.00;;;;;;5050650;28;20523;-68
2023/09/03 04:34:32;;;;;;;4.67;3.27;;;16.20;98.00;;;;;;5051465;28;20939;-68
2023/09/03 04:36:59;;;;;;;6.40;3.07;;;16.20;98.00;;;;;;5050154;28;21077;-68
2023/09/03 04:39:26;;;;;;;5.40;2.90;;;16.20;98.00;;;;;;5051138;28;20519;-69
2023/09/03 04:41:53;;;;;;;4.10;3.17;;;16.20;98.00;;;;;;5051202;28;20908;-68
2023/09/03 04:44:21;;;;;;;5.03;2.93;;;16.20;98.00;;;;;;5051094;28;20460;-68
2023/09/03 04:46:48;;;;;;;5.80;3.10;;;16.20;98.00;;;;;;5050953;28;20571;-67
2023/09/03 04:49:15;;;;;;;4.83;2.93;;;16.20;98.00;;;;;;5051053;28;20682;-68
2023/09/03 04:51:44;;;;;;;3.83;2.97;;;16.30;98.00;;;;;;5051004;28;20473;-67
2023/09/03 04:54:11;;;;;;;5.77;3.03;;;16.40;98.00;;;;;;5051262;28;20962;-68
2023/09/03 04:56:38;;;;;;;5.33;3.27;;;16.50;98.00;;;;;;5051093;28;20456;-67
2023/09/03 04:59:05;;;;;;;6.60;3.37;;;16.60;98.00;;;;;;5050881;28;20469;-69
2023/09/03 05:01:32;;;;;;;6.90;3.30;;;16.50;98.00;;;;;;5050828;28;20454;-68
2023/09/03 05:03:59;;;;;;;4.23;3.00;;;16.60;98.00;;;;;;5049609;28;20454;-68
2023/09/03 05:06:26;;;;;;;3.87;2.87;;;16.50;98.00;;;;;;5050841;28;20450;-68
2023/09/03 05:08:54;;;;;;;4.00;3.00;;;16.50;98.00;;;;;;5050684;28;20501;-68
2023/09/03 05:11:21;;;;;;;5.80;3.40;;;16.30;98.00;;;;;;5050729;28;20500;-68
2023/09/03 05:13:48;;;;;;;4.60;3.00;;;16.30;98.00;;;;;;5051842;28;20540;-68
2023/09/03 05:16:15;;;;;;;5.23;3.20;;;16.40;98.00;;;;;;5054809;28;20935;-69
2023/09/03 05:18:42;;;;;;;4.53;2.90;;;16.40;98.00;;;;;;5053458;28;20550;-68
2023/09/03 05:21:10;;;;;;;6.50;3.07;;;16.50;98.00;;;;;;5054710;28;20461;-68
2023/09/03 05:23:38;;;;;;;4.80;3.07;;;16.60;98.00;;;;;;5053446;28;20454;-68
2023/09/03 05:26:06;;;;;;;3.70;2.90;;;16.60;98.00;;;;;;5054684;28;20450;-68
2023/09/03 05:28:33;;;;;;;4.57;2.80;;;16.70;98.00;;;;;;5054368;28;20484;-69
2023/09/03 05:31:00;;;;;;;7.03;2.83;;;16.70;98.00;;;;;;5054574;28;20453;-68
2023/09/03 05:33:27;;;;;;;6.27;3.33;;;16.70;98.00;;;;;;5054602;28;20458;-69
2023/09/03 05:35:54;;;;;;;11.87;3.40;;;17.00;98.00;;;;;;5054644;28;20453;-68
2023/09/03 05:38:21;;;;;;;5.07;3.20;;;17.20;98.00;;;;;;5054398;28;20495;-69
2023/09/03 05:40:49;;;;;;;5.10;3.27;;;17.10;98.00;;;;;;5054273;28;20548;-68
2023/09/03 05:43:17;;;;;;;6.40;3.53;;;17.20;98.00;;;;;;5054304;28;20819;-68
2023/09/03 05:45:45;;;;;;;8.50;3.47;;;17.30;98.00;;;;;;5054278;28;20452;-67
2023/09/03 05:48:12;;;;;;;5.00;3.07;;;17.40;98.00;;;;;;5054467;28;20524;-67
2023/09/03 05:50:39;;;;;;;5.37;3.27;;;17.40;98.00;;;;;;5054381;28;20461;-67
2023/09/03 05:53:07;;;;;;;6.00;3.63;;;17.40;98.00;;;;;;5054266;28;20474;-67
2023/09/03 05:55:37;;;;;;;5.77;3.37;;;17.50;98.00;;;;;;5053977;28;20458;-67
2023/09/03 05:58:05;;;;;;;5.47;3.33;;;17.60;98.00;;;;;;5052603;28;20457;-68
2023/09/03 06:00:34;;;;;;;6.20;3.40;;;17.60;98.00;;;;;;5052746;28;20524;-67
2023/09/03 06:03:01;;;;;;;5.50;3.10;;;17.50;98.00;;;;;;5054075;28;20508;-67
2023/09/03 06:05:28;;;;;;;6.37;3.30;;;17.70;98.00;;;;;;5054042;28;20789;-68
2023/09/03 06:07:57;;;;;;;5.63;3.37;;;17.70;98.00;;;;;;5053705;28;20489;-67
2023/09/03 06:10:25;;;;;;;4.53;2.93;;;17.70;98.00;;;;;;5053772;28;20445;-67
2023/09/03 06:12:52;;;;;;;5.30;3.53;;;17.70;98.00;;;;;;5053612;28;20465;-68
2023/09/03 06:15:19;;;;;;;4.93;3.53;;;17.70;98.00;;;;;;5053721;28;20878;-67
2023/09/03 06:17:50;;;;;;;5.43;3.47;;;17.80;98.00;;;;;;5053766;28;20515;-67
2023/09/03 06:20:17;;;;;;;6.53;3.47;;;17.90;98.00;;;;;;5053916;28;20869;-67
2023/09/03 06:22:44;;;;;;;7.40;3.87;;;17.80;98.00;;;;;;5053497;28;20461;-67
2023/09/03 06:25:11;;;;;;;5.30;3.57;;;17.90;98.00;;;;;;5053195;28;20936;-68
2023/09/03 06:27:38;;;;;;;8.10;3.60;;;17.90;98.00;;;;;;5053223;28;20474;-67
2023/09/03 06:30:08;;;;;;;8.70;3.37;;;17.90;98.00;;;;;;5053660;28;20454;-67
2023/09/03 06:32:35;;;;;;;6.23;3.50;;;18.00;98.00;;;;;;5052667;28;20546;-67
2023/09/03 06:35:05;;;;;;;6.60;3.40;;;18.20;98.00;;;;;;5053450;28;20983;-67
2023/09/03 06:37:32;;;;;;;6.60;3.80;;;18.30;98.00;;;;;;5054055;28;20483;-67
2023/09/03 06:39:59;;;;;;;4.40;3.03;;;18.30;98.00;;;;;;5054514;28;20548;-68
2023/09/03 06:42:29;;;;;;;6.03;3.60;;;18.30;98.00;;;;;;5054359;28;20446;-67
2023/09/03 06:44:57;;;;;;;6.27;3.77;;;18.30;98.00;;;;;;5053777;28;20834;-67
2023/09/03 06:47:24;;;;;;;6.50;3.70;;;18.30;98.00;;;;;;5054015;28;20848;-68
2023/09/03 06:49:51;;;;;;;6.07;3.37;;;18.30;98.00;;;;;;5054125;28;20454;-68
2023/09/03 06:52:20;;;;;;;6.90;3.87;;;18.30;98.00;;;;;;5053549;28;20461;-66
2023/09/03 06:54:48;;;;;;;6.70;3.70;;;18.40;98.00;;;;;;5053010;28;20450;-66
2023/09/03 06:57:15;;;;;;;6.00;3.60;;;18.50;98.00;;;;;;5053001;28;20461;-66
2023/09/03 06:59:43;;;;;;;5.47;3.63;;;18.50;98.00;;;;;;5052920;28;20543;-66
2023/09/03 07:02:10;;;;;;;10.03;3.57;;;18.60;98.00;;;;;;5053067;28;20450;-66
2023/09/03 07:04:37;;;;;;;9.33;3.73;;;18.70;98.00;;;;;;5052798;28;20454;-66
2023/09/03 07:07:04;;;;;;;5.60;3.67;;;18.90;98.00;;;;;;5053072;28;20450;-66
2023/09/03 07:09:33;;;;;;;11.37;3.90;;;19.00;98.00;;;;;;5052860;28;20509;-66
2023/09/03 07:12:01;;;;;;;7.00;3.50;;;19.00;98.00;;;;;;5052677;28;20492;-66
2023/09/03 07:14:32;;;;;;;8.27;3.90;;;18.90;98.00;;;;;;5052844;28;20848;-66
2023/09/03 07:16:59;;;;;;;6.90;3.60;;;19.10;98.00;;;;;;5052434;28;20454;-66
2023/09/03 07:19:27;;;;;;;6.10;3.50;;;19.10;98.00;;;;;;5052549;28;20458;-67
2023/09/03 07:21:54;;;;;;;7.37;3.80;;;19.10;98.00;;;;;;5052496;28;20819;-66
2023/09/03 07:24:22;;;;;;;7.90;3.57;;;19.20;98.00;;;;;;5052593;28;20461;-67
2023/09/03 07:26:50;;;;;;;5.20;3.60;;;19.20;98.00;;;;;;5052541;28;20512;-66
2023/09/03 07:29:17;;;;;;;7.90;4.00;;;19.20;98.00;;;;;;5052644;28;20482;-66
2023/09/03 07:31:44;;;;;;;6.03;3.70;;;19.30;98.00;;;;;;5052382;28;20454;-66
2023/09/03 07:34:12;;;;;;;7.10;3.60;;;19.30;98.00;;;;;;5052604;28;20455;-66
2023/09/03 07:36:39;;;;;;;6.30;3.50;;;19.50;98.00;;;;;;5051549;28;20453;-66
2023/09/03 07:39:09;;;;;;;5.50;3.57;;;19.60;98.00;;;;;;5052439;28;20973;-67
2023/09/03 07:41:37;;;;;;;7.03;3.70;;;19.70;98.00;;;;;;5052546;28;20495;-66
2023/09/03 07:44:07;;;;;;;4.60;3.50;;;19.90;98.00;;;;;;5052231;28;20451;-66
2023/09/03 07:46:37;;;;;;;4.03;3.07;;;19.90;98.00;;;;;;5052238;28;20800;-66
2023/09/03 07:49:04;;;;;;;5.00;3.40;;;19.90;98.00;;;;;;5051963;28;20488;-67
2023/09/03 07:51:31;;;;;;;6.10;4.00;;;20.00;98.00;;;;;;5052045;28;20451;-67
2023/09/03 07:53:58;;;;;;;5.80;3.60;;;20.10;98.00;;;;;;5052111;28;20450;-66
2023/09/03 07:56:25;;;;;;;7.70;4.10;;;20.20;98.00;;;;;;5052020;28;20446;-67
2023/09/03 07:58:52;;;;;;;6.00;3.50;;;20.20;98.00;;;;;;5052101;28;20465;-67
2023/09/03 08:01:22;;;;;;;5.90;3.13;;;20.20;98.00;;;;;;5051315;28;20461;-67
2023/09/03 08:03:51;;;;;;;6.80;3.63;;;20.30;98.00;;;;;;5051883;28;20460;-67
2023/09/03 08:06:18;;;;;;;4.80;3.47;;;20.40;98.00;;;;;;5050782;28;20456;-67
2023/09/03 08:08:53;;;;;;;5.37;3.63;;;20.40;98.00;;;;;;5051612;28;20489;-66
2023/09/03 08:11:21;;;;;;;6.73;3.90;;;20.60;98.00;;;;;;5051648;28;20483;-67
2023/09/03 08:13:52;;;;;;;9.33;3.37;;;20.80;98.00;;;;;;5051593;28;20540;-67
2023/09/03 08:16:21;;;;;;;6.37;4.00;;;20.90;98.00;;;;;;5051818;28;20523;-67
2023/09/03 08:18:48;;;;;;;6.40;3.80;;;20.90;98.00;;;;;;5051301;28;20503;-67
2023/09/03 08:21:15;;;;;;;7.10;3.67;;;21.00;98.00;;;;;;5051578;28;20540;-67
2023/09/03 08:23:42;;;;;;;5.23;3.30;;;21.10;98.00;;;;;;5051373;28;20599;-67
2023/09/03 08:26:12;;;;;;;6.57;4.10;;;21.20;98.00;;;;;;5051465;28;20572;-66
2023/09/03 08:28:39;;;;;;;6.10;3.93;;;21.40;98.00;;;;;;5051265;28;20862;-67
2023/09/03 08:31:07;;;;;;;8.30;4.30;;;21.50;98.00;;;;;;5049948;28;20556;-67
2023/09/03 08:33:35;;;;;;;7.70;4.90;;;21.60;98.00;;;;;;5051155;28;20453;-67
2023/09/03 08:36:02;;;;;;;7.03;3.80;;;21.60;98.00;;;;;;5051233;28;20834;-67
2023/09/03 08:38:31;;;;;;;7.53;4.70;;;21.70;98.00;;;;;;5049992;28;20453;-67
2023/09/03 08:40:58;;;;;;;7.07;4.17;;;21.80;98.00;;;;;;5051446;28;20453;-67
2023/09/03 08:43:27;;;;;;;8.10;4.80;;;22.00;98.00;;;;;;5051328;28;20958;-67
2023/09/03 08:45:57;;;;;;;8.23;4.47;;;22.20;98.00;;;;;;5051139;28;20537;-67
2023/09/03 08:48:24;;;;;;;5.63;4.00;;;22.30;98.00;;;;;;5049428;28;20557;-67
2023/09/03 08:50:52;;;;;;;6.97;4.13;;;22.40;98.00;;;;;;5051015;28;20495;-67
2023/09/03 08:53:22;;;;;;;4.10;2.83;;;22.50;98.00;;;;;;5051199;28;20825;-64
2023/09/03 08:55:50;;;;;;;8.43;4.30;;;22.60;98.00;;;;;;5051202;28;21014;-66
2023/09/03 09:03:17;;;;;;;7.00;3.80;;;22.70;98.00;;;;;;5008449;28;20503;-66
2023/09/03 09:05:47;;;;;;;6.10;3.90;;;22.90;98.00;;;;;;5010781;28;20521;-67
2023/09/03 09:08:15;;;;;;;6.07;3.97;;;23.10;98.00;;;;;;5010134;28;20917;-67
2023/09/03 09:10:47;;;;;;;7.03;3.33;;;23.20;98.00;;;;;;5010778;28;21028;-66
2023/09/03 09:13:16;;;;;;;5.43;4.10;;;23.30;98.00;;;;;;5010777;28;20455;-67
2023/09/03 09:15:44;;;;;;;5.97;3.77;;;23.50;98.00;;;;;;5011120;28;20494;-67
2023/09/03 09:18:11;;;;;;;5.13;3.70;;;23.60;98.00;;;;;;5011225;28;20439;-66
2023/09/03 09:20:40;;;;;;;7.73;4.17;;;23.70;98.00;;;;;;5011109;28;20456;-63
2023/09/03 09:23:07;;;;;;;6.10;4.00;;;23.80;98.00;;;;;;5011393;28;20460;-66
2023/09/03 09:25:37;;;;;;;5.60;3.43;;;23.80;98.00;;;;;;5011285;28;20494;-67
2023/09/03 09:28:11;;;;;;;6.27;4.13;;;23.90;98.00;;;;;;5011116;28;20491;-67
2023/09/03 09:30:53;;;;;;;5.83;3.87;;;24.00;98.00;;;;;;5009694;28;20482;-67
2023/09/03 09:33:20;;;;;;;8.20;4.60;;;24.10;98.00;;;;;;5011385;28;20499;-67
2023/09/03 09:35:48;;;;;;;7.10;4.10;;;24.10;98.00;;;;;;5011243;28;20452;-66
2023/09/03 09:38:16;;;;;;;7.10;4.17;;;24.20;98.00;;;;;;5009950;28;20538;-67
2023/09/03 09:40:44;;;;;;;6.33;3.67;;;24.20;98.00;;;;;;5011162;28;20490;-66
2023/09/03 09:43:11;;;;;;;7.10;3.90;;;24.30;98.00;;;;;;5011091;28;20467;-68
2023/09/03 09:45:48;;;;;;;6.70;3.60;;;24.50;98.00;;;;;;5010973;28;21017;-67
2023/09/03 09:48:16;;;;;;;5.20;3.40;;;24.70;98.00;;;;;;5010749;28;20455;-67
2023/09/03 09:50:45;;;;;;;4.97;3.20;;;24.80;98.00;;;;;;5011080;28;20946;-66
2023/09/03 09:53:23;;;;;;;4.20;3.23;;;24.90;98.00;;;;;;5010188;28;20829;-67
2023/09/03 09:56:00;;;;;;;5.47;3.50;;;24.90;98.00;;;;;;5010925;28;20451;-66
2023/09/03 09:58:36;;;;;;;5.27;3.70;;;25.00;98.00;;;;;;5009664;28;20873;-66
2023/09/03 10:01:03;;;;;;;5.53;3.20;;;25.00;98.00;;;;;;5013659;28;20807;-70
2023/09/03 10:03:41;;;;;;;4.80;3.30;;;25.10;98.00;;;;;;5014387;28;20949;-71
2023/09/03 10:06:09;;;;;;;6.77;3.70;;;25.10;98.00;;;;;;5014437;28;20497;-71
2023/09/03 10:08:36;;;;;;;5.27;3.70;;;25.20;98.00;;;;;;5014336;28;20893;-67
2023/09/03 10:11:05;;;;;;;4.30;3.10;;;25.10;98.00;;;;;;5014449;28;21020;-67
2023/09/03 10:13:33;;;;;;;4.40;3.10;;;25.40;98.00;;;;;;5014285;28;20459;-67
2023/09/03 10:16:03;;;;;;;4.30;3.03;;;25.50;98.00;;;;;;5013012;28;20451;-67
2023/09/03 10:18:32;;;;;;;3.73;3.00;;;25.50;98.00;;;;;;5014176;28;20507;-68
2023/09/03 10:21:01;;;;;;;4.97;3.17;;;25.70;98.00;;;;;;5014251;28;20487;-69
2023/09/03 10:23:34;;;;;;;3.97;3.20;;;25.90;98.00;;;;;;5014462;28;20459;-68
2023/09/03 10:26:05;;;;;;;4.50;3.00;;;26.10;98.00;;;;;;5014478;28;20483;-69
2023/09/03 10:28:39;;;;;;;6.00;3.13;;;26.20;98.00;;;;;;5012308;28;20490;-68
2023/09/03 10:31:08;;;;;;;3.90;2.80;;;26.40;98.00;;;;;;5013605;28;20862;-69
2023/09/03 10:33:35;;;;;;;4.30;3.13;;;26.40;98.00;;;;;;5011869;28;20483;-68
2023/09/03 10:36:12;;;;;;;3.70;3.00;;;26.60;98.00;;;;;;5013628;28;20463;-69
2023/09/03 10:38:40;;;;;;;4.20;2.73;;;26.70;98.00;;;;;;5013082;28;20542;-69
2023/09/03 10:41:21;;;;;;;5.80;3.40;;;26.80;98.00;;;;;;5013698;28;20456;-69
2023/09/03 10:43:52;;;;;;;4.33;3.10;;;26.80;98.00;;;;;;5013719;28;20462;-69
2023/09/03 10:46:21;;;;;;;4.40;2.90;;;26.70;98.00;;;;;;5013769;28;20471;-69
2023/09/03 10:48:53;;;;;;;3.10;2.63;;;26.90;98.00;;;;;;5013382;28;20578;-68
2023/09/03 10:51:34;;;;;;;3.20;2.67;;;27.10;98.00;;;;;;5013500;28;20467;-69
2023/09/03 10:54:20;;;;;;;4.50;2.83;;;27.20;98.00;;;;;;5013447;28;20482;-69
2023/09/03 10:57:19;;;;;;;5.10;3.10;;;27.10;98.00;;;;;;5013359;28;20455;-69
2023/09/03 11:00:17;;;;;;;3.33;2.73;;;27.10;98.00;;;;;;5008779;28;20812;-69
2023/09/03 11:02:44;;;;;;;3.60;2.60;;;27.10;98.00;;;;;;4952379;29;20497;-69
2023/09/03 11:05:13;;;;;;;5.10;3.20;;;27.00;98.00;;;;;;4999603;28;20455;-69
2023/09/03 11:07:40;;;;;;;4.00;2.60;;;27.00;98.00;;;;;;5011937;28;20448;-69
2023/09/03 11:10:38;;;;;;;4.67;3.00;;;27.20;98.00;;;;;;5013144;28;21081;-70
2023/09/03 11:13:13;;;;;;;3.53;2.67;;;27.40;98.00;;;;;;5012863;28;20530;-69
2023/09/03 11:15:55;;;;;;;3.87;2.77;;;27.50;98.00;;;;;;5013310;28;20463;-69
2023/09/03 11:18:25;;;;;;;4.07;2.87;;;27.90;98.00;;;;;;5012929;28;20458;-69
2023/09/03 11:20:53;;;;;;;3.73;2.80;;;28.00;98.00;;;;;;5013520;28;20456;-69
2023/09/03 11:23:21;;;;;;;3.83;2.83;;;28.10;98.00;;;;;;5013126;28;20448;-69
2023/09/03 11:25:48;;;;;;;3.43;2.60;;;28.20;98.00;;;;;;5013093;28;20463;-69
2023/09/03 11:28:17;;;;;;;3.60;3.00;;;28.20;98.00;;;;;;5011840;28;20447;-69
2023/09/03 11:30:46;;;;;;;3.17;2.50;;;28.10;98.00;;;;;;5012776;28;20491;-69
2023/09/03 11:33:26;;;;;;;3.37;2.60;;;28.30;98.00;;;;;;5012560;28;20456;-68
2023/09/03 11:35:54;;;;;;;3.83;2.83;;;28.50;98.00;;;;;;5012650;28;20447;-69
2023/09/03 11:38:26;;;;;;;3.67;3.00;;;28.60;98.00;;;;;;5012499;28;21046;-69
2023/09/03 11:40:55;;;;;;;3.80;2.80;;;28.80;98.00;;;;;;5012773;28;20513;-70
2023/09/03 11:43:24;;;;;;;5.13;2.50;;;28.80;98.00;;;;;;5012466;28;20892;-70
2023/09/03 11:45:52;;;;;;;4.07;3.07;;;28.90;98.00;;;;;;5012721;28;20459;-70
2023/09/03 11:48:24;;;;;;;4.53;3.07;;;29.00;98.00;;;;;;5011906;28;20456;-69
2023/09/03 11:50:52;;;;;;;6.63;3.40;;;29.20;98.00;;;;;;5012495;28;20483;-69
2023/09/03 11:53:20;;;;;;;3.00;2.80;;;29.20;98.00;;;;;;5012269;28;20455;-69
2023/09/03 11:55:50;;;;;;;3.90;2.80;;;29.20;98.00;;;;;;5012574;28;20455;-69
2023/09/03 11:58:21;;;;;;;3.27;2.90;;;29.20;98.00;;;;;;5012266;28;20455;-69
2023/09/03 12:00:51;;;;;;;3.33;2.80;;;29.40;98.00;;;;;;5012391;28;20451;-69
2023/09/03 12:03:18;;;;;;;3.20;2.80;;;29.60;98.00;;;;;;5011099;28;20475;-68
2023/09/03 12:05:45;;;;;;;6.20;2.53;;;29.70;98.00;;;;;;5012270;28;20972;-69
2023/09/03 12:08:12;;;;;;;3.70;2.80;;;29.80;98.00;;;;;;5012189;28;20459;-69
2023/09/03 12:10:39;;;;;;;2.90;2.40;;;29.90;98.00;;;;;;5011379;28;20499;-69
2023/09/03 12:13:06;;;;;;;3.43;2.60;;;29.80;98.00;;;;;;5012278;28;20463;-69
2023/09/03 12:15:34;;;;;;;3.60;2.57;;;29.80;98.00;;;;;;5012263;28;20447;-69
2023/09/03 12:18:09;;;;;;;3.10;2.30;;;29.90;98.00;;;;;;5012392;28;20447;-68
2023/09/03 12:20:38;;;;;;;3.50;2.73;;;29.90;98.00;;;;;;5012003;28;20535;-69
2023/09/03 12:23:11;;;;;;;3.80;2.67;;;29.90;97.70;;;;;;5011639;28;20455;-68
2023/09/03 12:25:40;;;;;;;2.90;2.43;;;30.10;98.00;;;;;;5010746;28;20483;-68
2023/09/03 12:28:07;;;;;;;3.10;2.47;;;30.10;98.00;;;;;;5011811;28;20487;-69
2023/09/03 12:30:57;;;;;;;3.83;2.70;;;30.10;98.00;;;;;;5011574;28;20514;-70
2023/09/03 12:33:44;;;;;;;5.20;2.50;;;30.10;97.20;;;;;;5011654;28;20946;-69
2023/09/03 12:36:12;;;;;;;3.10;2.30;;;30.20;98.00;;;;;;5011905;28;20451;-69
2023/09/03 12:38:53;;;;;;;3.70;2.43;;;30.20;98.00;;;;;;5011310;28;20970;-69
2023/09/03 12:41:20;;;;;;;3.33;2.40;;;30.40;98.00;;;;;;5011695;28;20463;-68
2023/09/03 12:43:47;;;;;;;3.10;2.30;;;30.50;97.50;;;;;;5010820;28;20451;-70
2023/09/03 12:46:14;;;;;;;3.80;2.70;;;30.60;96.70;;;;;;5011596;28;20470;-70
2023/09/03 12:48:44;;;;;;;3.20;2.43;;;30.70;95.80;;;;;;5011520;28;20478;-70
2023/09/03 12:51:19;;;;;;;2.83;2.30;;;30.80;95.20;;;;;;5011678;28;20526;-70
2023/09/03 12:53:47;;;;;;;2.23;2.13;;;30.90;94.80;;;;;;5011404;28;20451;-70
2023/09/03 12:56:14;;;;;;;4.50;2.23;;;30.90;93.60;;;;;;5011204;28;20466;-70
2023/09/03 12:58:42;;;;;;;2.73;2.27;;;30.60;94.30;;;;;;5011397;28;20518;-70
2023/09/03 13:01:10;;;;;;;2.30;2.10;;;30.50;95.20;;;;;;5011340;28;20554;-70